British Courage — MNYF6 — position and weather

sailwx.info

Track history (hours):
 
Tides and Currents Weather Stations Pressure Air Temp Water Temp Dewpoint Dewpoint Depression Visibility Wind Speed Wind Dir Waves Ship Positions

British Courage

Last reported at 2018-Feb-17 08:15 UTC. Time now 2018-Feb-21 09:16 UTC.
Position N 16°19' E 069°11'.

Length 230 m; beam 36.6 m; draft 11.587 m.

Type: Ship (hazmat cat A). MMSI: 235011670.

Date/timePositionNaut miles runAvg speedWind from/ knotsBaromVisibWave heightAir tempDewpointWater temp
2018-Feb-17 08:15N 16°19' E 069°11'413.7
2018-Feb-17 07:57N 16°15' E 069°14'613.7
2018-Feb-17 07:30N 16°10' E 069°17'713.7
2018-Feb-17 07:00N 16°05' E 069°22'713.7
2018-Feb-17 06:30N 15°59' E 069°26'1514.1
2018-Feb-17 05:26N 15°47' E 069°34'2914.1
2018-Feb-17 03:23N 15°23' E 069°52'6313.5
2018-Feb-16 22:41N 14°31' E 070°29'513.5
2018-Feb-16 22:18N 14°26' E 070°32'  
2018-Feb-13 10:00N 05°24' E 086°00'52214.1 350 / 101012.310.8 28.522.730.0
2018-Feb-11 21:00N 06°18' E 094°42'18015.0 080 / 151009.510.8 30.521.730.0
2018-Feb-11 09:00N 06°00' E 097°42'16513.8 290 / 51009.8 5.4 31.520.330.0
2018-Feb-10 21:00N 04°06' E 099°42'26713.7 280 / 151008.710.8 28.522.730.0
2018-Feb-10 01:28N 01°23' E 103°15'1215.0
2018-Feb-10 00:41N 01°16' E 103°23'314.4
2018-Feb-10 00:28N 01°14' E 103°26'714.4
2018-Feb-10 00:00N 01°12' E 103°32'612.4
2018-Feb-09 23:30N 01°11' E 103°39'4 8.1
2018-Feb-09 23:00N 01°11' E 103°43'0 0.5
2018-Feb-09 22:46N 01°11' E 103°43'0 0.0
2018-Feb-08 22:30N 01°11' E 103°43'0 0.0
2018-Feb-08 22:00N 01°11' E 103°43'0 0.0
2018-Feb-08 21:30N 01°10' E 103°43'0 0.0
2018-Feb-08 21:00N 01°10' E 103°43'0 0.0
2018-Feb-08 20:30N 01°10' E 103°43'0 0.0
2018-Feb-08 20:00N 01°10' E 103°43'0 0.0
2018-Feb-08 19:30N 01°11' E 103°43'0 0.0
2018-Feb-08 18:00N 01°11' E 103°43'0 0.0
2018-Feb-08 10:00N 01°10' E 103°43'  
Track history (hours):
 
Tides and Currents Weather Stations Pressure Air Temp Water Temp Dewpoint Dewpoint Depression Visibility Wind Speed Wind Dir Waves Ship Positions

British Courage

Last reported at 2018-Feb-17 08:15 UTC. Time now 2018-Feb-21 09:16 UTC.
Position N 16°19' E 069°11'.

Length 230 m; beam 36.6 m; draft 11.587 m.

Type: Ship (hazmat cat A). MMSI: 235011670.

Date/timePositionNaut miles runAvg speedWind from/ knotsBaromVisibWave heightAir tempDewpointWater temp
2018-Feb-17 08:15N 16°19' E 069°11'413.7
2018-Feb-17 07:57N 16°15' E 069°14'613.7
2018-Feb-17 07:30N 16°10' E 069°17'713.7
2018-Feb-17 07:00N 16°05' E 069°22'713.7
2018-Feb-17 06:30N 15°59' E 069°26'1514.1
2018-Feb-17 05:26N 15°47' E 069°34'2914.1
2018-Feb-17 03:23N 15°23' E 069°52'6313.5
2018-Feb-16 22:41N 14°31' E 070°29'513.5
2018-Feb-16 22:18N 14°26' E 070°32'  
2018-Feb-13 10:00N 05°24' E 086°00'52214.1 350 / 101012.310.8 28.522.730.0
2018-Feb-11 21:00N 06°18' E 094°42'18015.0 080 / 151009.510.8 30.521.730.0
2018-Feb-11 09:00N 06°00' E 097°42'16513.8 290 / 51009.8 5.4 31.520.330.0
2018-Feb-10 21:00N 04°06' E 099°42'26713.7 280 / 151008.710.8 28.522.730.0
2018-Feb-10 01:28N 01°23' E 103°15'1215.0
2018-Feb-10 00:41N 01°16' E 103°23'314.4
2018-Feb-10 00:28N 01°14' E 103°26'714.4
2018-Feb-10 00:00N 01°12' E 103°32'612.4
2018-Feb-09 23:30N 01°11' E 103°39'4 8.1
2018-Feb-09 23:00N 01°11' E 103°43'0 0.5
2018-Feb-09 22:46N 01°11' E 103°43'0 0.0
2018-Feb-08 22:30N 01°11' E 103°43'0 0.0
2018-Feb-08 22:00N 01°11' E 103°43'0 0.0
2018-Feb-08 21:30N 01°10' E 103°43'0 0.0
2018-Feb-08 21:00N 01°10' E 103°43'0 0.0
2018-Feb-08 20:30N 01°10' E 103°43'0 0.0
2018-Feb-08 20:00N 01°10' E 103°43'0 0.0
2018-Feb-08 19:30N 01°11' E 103°43'0 0.0
2018-Feb-08 18:00N 01°11' E 103°43'0 0.0
2018-Feb-08 10:00N 01°10' E 103°43'  

Dump ship's entire track history